createdAt,value
2019-03-05T00:04:42.067Z,9.20
2019-03-05T00:07:17.240Z,9.10
2019-03-05T00:09:47.693Z,9.10
2019-03-05T00:12:38.046Z,9.00
2019-03-05T00:15:08.531Z,9.00
2019-03-05T00:17:46.918Z,8.90
2019-03-05T00:20:16.209Z,8.90
2019-03-05T00:22:54.662Z,8.90
2019-03-05T00:25:30.129Z,8.80
2019-03-05T00:28:27.589Z,8.80
2019-03-05T00:31:16.699Z,8.70
2019-03-05T00:34:18.170Z,8.70
2019-03-05T00:37:06.822Z,8.70
2019-03-05T00:40:16.794Z,8.60
2019-03-05T00:43:35.521Z,8.60
2019-03-05T00:46:43.609Z,8.50
2019-03-05T00:49:32.667Z,8.50
2019-03-05T00:52:34.104Z,8.50
2019-03-05T00:55:32.081Z,8.50
2019-03-05T00:58:38.107Z,8.50
2019-03-05T01:01:41.317Z,8.40
2019-03-05T01:05:13.311Z,8.40
2019-03-05T01:07:44.722Z,8.30
2019-03-05T01:10:16.051Z,8.20
2019-03-05T01:13:06.592Z,8.20
2019-03-05T01:15:38.274Z,8.10
2019-03-05T01:18:08.042Z,8.00
2019-03-05T01:20:37.525Z,8.00
2019-03-05T01:23:07.368Z,7.90
2019-03-05T01:25:36.812Z,7.80
2019-03-05T01:28:06.476Z,7.70
2019-03-05T01:31:06.672Z,7.60
2019-03-05T01:33:44.787Z,7.60
2019-03-05T01:36:42.615Z,7.50
2019-03-05T01:39:33.485Z,7.50
2019-03-05T01:42:03.169Z,7.50
2019-03-05T01:44:32.513Z,7.50
2019-03-05T01:47:08.154Z,7.40
2019-03-05T01:49:37.526Z,7.40
2019-03-05T01:52:09.051Z,7.30
2019-03-05T01:54:39.397Z,7.30
2019-03-05T01:57:18.050Z,7.30
2019-03-05T01:59:47.384Z,7.30
2019-03-05T02:02:22.606Z,7.20
2019-03-05T02:04:51.973Z,7.20
2019-03-05T02:07:21.531Z,7.20
2019-03-05T02:09:51.015Z,7.20
2019-03-05T02:12:27.627Z,7.20
2019-03-05T02:15:05.521Z,7.20
2019-03-05T02:17:45.615Z,7.20
2019-03-05T02:20:21.753Z,7.20
2019-03-05T02:23:16.214Z,7.30
2019-03-05T02:26:07.029Z,7.30
2019-03-05T02:29:14.677Z,7.30
2019-03-05T02:32:42.273Z,7.20
2019-03-05T02:35:38.903Z,7.20
2019-03-05T02:38:52.235Z,7.20
2019-03-05T02:42:01.707Z,7.10
2019-03-05T02:44:58.165Z,7.00
2019-03-05T02:48:05.578Z,7.00
2019-03-05T02:51:15.983Z,7.00
2019-03-05T02:54:22.322Z,6.90
2019-03-05T02:57:10.842Z,7.00
2019-03-05T02:59:40.909Z,7.00
2019-03-05T03:02:29.857Z,7.10
2019-03-05T03:05:15.454Z,7.00
2019-03-05T03:07:47.235Z,7.00
2019-03-05T03:10:22.355Z,7.00
2019-03-05T03:12:51.858Z,7.00
2019-03-05T03:15:21.406Z,7.00
2019-03-05T03:17:51.055Z,7.00
2019-03-05T03:20:21.517Z,7.10
2019-03-05T03:22:50.890Z,7.10
2019-03-05T03:25:26.587Z,7.10
2019-03-05T03:27:55.847Z,7.10
2019-03-05T03:30:27.514Z,7.00
2019-03-05T03:32:56.883Z,7.00
2019-03-05T03:35:29.339Z,7.00
2019-03-05T03:37:58.580Z,7.00
2019-03-05T03:40:27.942Z,6.90
2019-03-05T03:42:57.321Z,6.90
2019-03-05T03:45:27.559Z,6.90
2019-03-05T03:47:56.934Z,6.90
2019-03-05T03:50:28.587Z,6.90
2019-03-05T03:52:58.034Z,6.90
2019-03-05T03:55:35.561Z,6.90
2019-03-05T03:58:04.989Z,6.90
2019-03-05T04:00:34.428Z,6.90
2019-03-05T04:03:04.640Z,6.90
2019-03-05T04:05:35.206Z,7.00
2019-03-05T04:08:05.091Z,7.00
2019-03-05T04:10:35.017Z,7.00
2019-03-05T04:13:04.450Z,7.00
2019-03-05T04:15:46.625Z,6.90
2019-03-05T04:18:15.944Z,6.80
2019-03-05T04:20:54.266Z,6.80
2019-03-05T04:23:23.591Z,6.70
2019-03-05T04:25:53.261Z,6.70
2019-03-05T04:28:22.999Z,6.60
2019-03-05T04:30:54.952Z,6.60
2019-03-05T04:33:24.175Z,6.60
2019-03-05T04:35:57.673Z,6.50
2019-03-05T04:38:26.950Z,6.50
2019-03-05T04:40:58.457Z,6.60
2019-03-05T04:43:27.758Z,6.60
2019-03-05T04:46:09.121Z,6.60
2019-03-05T04:48:39.622Z,6.70
2019-03-05T04:51:15.797Z,6.60
2019-03-05T04:53:45.950Z,6.60
2019-03-05T04:56:17.406Z,6.50
2019-03-05T04:58:49.088Z,6.50
2019-03-05T05:01:22.221Z,6.40
2019-03-05T05:03:51.495Z,6.50
2019-03-05T05:06:20.729Z,6.40
2019-03-05T05:08:50.048Z,6.40
2019-03-05T05:11:21.874Z,6.30
2019-03-05T05:13:51.127Z,6.30
2019-03-05T05:16:20.549Z,6.40
2019-03-05T05:18:49.812Z,6.40
2019-03-05T05:21:19.088Z,6.50
2019-03-05T05:23:48.489Z,6.60
2019-03-05T05:26:22.252Z,6.60
2019-03-05T05:28:51.684Z,6.60
2019-03-05T05:31:21.036Z,6.50
2019-03-05T05:33:50.289Z,6.50
2019-03-05T05:36:27.817Z,6.50
2019-03-05T05:38:57.209Z,6.40
2019-03-05T05:41:37.792Z,6.40
2019-03-05T05:44:07.302Z,6.40
2019-03-05T05:46:36.609Z,6.40
2019-03-05T05:49:06.309Z,6.40
2019-03-05T05:51:35.577Z,6.40
2019-03-05T05:54:10.843Z,6.50
2019-03-05T05:56:40.806Z,6.50
2019-03-05T05:59:10.178Z,6.60
2019-03-05T06:01:40.463Z,6.60
2019-03-05T06:04:15.681Z,6.70
2019-03-05T06:06:47.528Z,6.70
2019-03-05T06:09:16.819Z,6.70
2019-03-05T06:11:47.099Z,6.80
2019-03-05T06:14:16.435Z,6.80
2019-03-05T06:16:47.260Z,6.90
2019-03-05T06:19:17.701Z,6.90
2019-03-05T06:21:47.003Z,6.90
2019-03-05T06:24:16.484Z,6.90
2019-03-05T06:26:51.066Z,7.00
2019-03-05T06:29:20.873Z,7.10
2019-03-05T06:31:59.595Z,7.10
2019-03-05T06:34:28.887Z,7.10
2019-03-05T06:37:09.129Z,7.20
2019-03-05T06:39:38.567Z,7.20
2019-03-05T06:42:09.452Z,7.20
2019-03-05T06:44:38.989Z,7.30
2019-03-05T06:47:10.449Z,7.30
2019-03-05T06:49:41.392Z,7.40
2019-03-05T06:52:11.854Z,7.40
2019-03-05T06:54:47.370Z,7.40
2019-03-05T06:57:16.824Z,7.50
2019-03-05T06:59:47.578Z,7.50
2019-03-05T07:02:22.659Z,7.50
2019-03-05T07:05:00.321Z,7.60
2019-03-05T07:07:31.662Z,7.70
2019-03-05T07:10:16.386Z,7.70
2019-03-05T07:13:47.393Z,7.80
2019-03-05T07:16:39.092Z,7.80
2019-03-05T07:19:23.830Z,7.90
2019-03-05T07:22:22.566Z,8.00
2019-03-05T07:24:52.797Z,8.10
2019-03-05T07:27:32.832Z,8.10
2019-03-05T07:30:24.055Z,8.20
2019-03-05T07:32:57.282Z,8.20
2019-03-05T07:35:31.239Z,8.30
2019-03-05T07:38:00.610Z,8.40
2019-03-05T07:40:30.043Z,8.50
2019-03-05T07:43:00.918Z,8.60
2019-03-05T07:45:30.395Z,8.70
2019-03-05T07:47:59.751Z,8.70
2019-03-05T07:50:29.114Z,8.80
2019-03-05T07:52:58.353Z,8.80
2019-03-05T07:55:27.800Z,8.90
2019-03-05T07:57:57.131Z,9.10
2019-03-05T08:00:27.309Z,9.20
2019-03-05T08:02:56.581Z,9.20
2019-03-05T08:05:26.007Z,9.20
2019-03-05T08:07:55.714Z,9.30
2019-03-05T08:10:30.998Z,9.40
2019-03-05T08:13:46.103Z,9.60
2019-03-05T08:16:40.741Z,9.70
2019-03-05T08:19:10.138Z,10.00
2019-03-05T08:21:40.001Z,10.40
2019-03-05T08:24:09.510Z,11.60
2019-03-05T08:26:40.348Z,11.90
2019-03-05T08:29:09.692Z,11.80
2019-03-05T08:31:39.337Z,12.50
2019-03-05T08:34:08.701Z,13.70
2019-03-05T08:36:37.949Z,14.80
2019-03-05T08:39:08.479Z,15.90
2019-03-05T08:41:37.749Z,16.50
2019-03-05T08:44:07.137Z,17.20
2019-03-05T08:46:37.128Z,17.90
2019-03-05T08:49:06.676Z,18.20
2019-03-05T08:51:35.960Z,18.80
2019-03-05T08:54:07.742Z,18.20
2019-03-05T08:56:36.446Z,17.90
2019-03-05T08:59:05.936Z,18.30
2019-03-05T09:01:35.250Z,18.70
2019-03-05T09:04:04.685Z,18.60
2019-03-05T09:06:34.030Z,19.00
2019-03-05T09:09:04.504Z,18.60
2019-03-05T09:11:33.865Z,19.00
2019-03-05T09:14:05.709Z,18.80
2019-03-05T09:16:36.211Z,18.50
2019-03-05T09:19:07.729Z,18.50
2019-03-05T09:21:37.120Z,18.80
2019-03-05T09:24:06.593Z,18.80
2019-03-05T09:26:35.951Z,18.80
2019-03-05T09:29:05.755Z,18.30
2019-03-05T09:31:35.210Z,18.30
2019-03-05T09:34:04.971Z,18.20
2019-03-05T09:36:34.866Z,18.90
2019-03-05T09:39:05.408Z,19.00
2019-03-05T09:41:34.805Z,19.70
2019-03-05T09:44:04.084Z,20.30
2019-03-05T09:46:33.500Z,20.40
2019-03-05T09:49:03.677Z,19.40
2019-03-05T09:51:33.051Z,18.90
2019-03-05T09:54:02.516Z,19.70
2019-03-05T09:56:31.997Z,19.90
2019-03-05T09:59:01.488Z,19.10
2019-03-05T10:01:31.315Z,17.70
2019-03-05T10:04:00.769Z,16.80
2019-03-05T10:06:30.384Z,16.40
2019-03-05T10:08:59.698Z,15.80
2019-03-05T10:11:29.847Z,15.50
2019-03-05T10:13:59.201Z,16.00
2019-03-05T10:16:28.913Z,16.50
2019-03-05T10:18:58.379Z,16.80
2019-03-05T10:21:27.722Z,17.40
2019-03-05T10:23:57.156Z,17.20
2019-03-05T10:26:26.399Z,16.40
2019-03-05T10:28:55.790Z,15.90
2019-03-05T10:31:25.121Z,16.40
2019-03-05T10:33:54.636Z,17.30
2019-03-05T10:36:24.223Z,17.70
2019-03-05T10:38:57.532Z,17.70
2019-03-05T10:41:25.352Z,18.10
2019-03-05T10:43:54.776Z,18.20
2019-03-05T10:46:24.033Z,18.20
2019-03-05T10:48:53.501Z,17.60
2019-03-05T10:51:22.873Z,17.30
2019-03-05T10:53:52.511Z,17.40
2019-03-05T10:56:21.988Z,17.10
2019-03-05T10:58:51.270Z,17.00
2019-03-05T11:01:20.634Z,16.80
2019-03-05T11:03:49.962Z,16.50
2019-03-05T11:06:19.337Z,16.30
2019-03-05T11:08:50.117Z,15.60
2019-03-05T11:11:19.404Z,14.80
2019-03-05T11:13:49.002Z,14.00
2019-03-05T11:16:18.472Z,13.70
2019-03-05T11:18:48.017Z,13.80
2019-03-05T11:21:17.747Z,13.80
2019-03-05T11:23:47.271Z,14.30
2019-03-05T11:26:16.770Z,15.00
2019-03-05T11:28:46.829Z,15.40
2019-03-05T11:31:16.272Z,15.80
2019-03-05T11:33:45.676Z,15.40
2019-03-05T11:36:15.132Z,14.80
2019-03-05T11:38:44.569Z,14.40
2019-03-05T11:41:13.874Z,14.40
2019-03-05T11:43:44.116Z,14.40
2019-03-05T11:46:17.414Z,14.60
2019-03-05T11:48:46.949Z,15.20
2019-03-05T11:51:16.737Z,15.30
2019-03-05T11:53:46.191Z,15.40
2019-03-05T11:56:15.671Z,15.20
2019-03-05T11:58:46.637Z,15.20
2019-03-05T12:01:41.140Z,15.10
2019-03-05T12:04:10.549Z,15.50
2019-03-05T12:06:41.124Z,15.80
2019-03-05T12:09:10.484Z,15.90
2019-03-05T12:11:40.030Z,15.50
2019-03-05T12:14:09.425Z,15.20
2019-03-05T12:16:41.780Z,15.20
2019-03-05T12:19:12.760Z,15.40
2019-03-05T12:21:44.102Z,15.10
2019-03-05T12:24:13.514Z,14.60
2019-03-05T12:26:43.066Z,14.00
2019-03-05T12:29:12.404Z,13.80
2019-03-05T12:31:41.932Z,13.90
2019-03-05T12:34:11.271Z,14.00
2019-03-05T12:36:40.809Z,13.80
2019-03-05T12:39:10.465Z,13.30
2019-03-05T12:41:41.365Z,12.90
2019-03-05T12:44:10.727Z,12.60
2019-03-05T12:46:40.142Z,12.50
2019-03-05T12:49:09.494Z,12.30
2019-03-05T12:51:39.235Z,12.20
2019-03-05T12:54:08.548Z,12.20
2019-03-05T12:56:38.006Z,12.00
2019-03-05T12:59:07.266Z,12.00
2019-03-05T13:01:37.653Z,11.90
2019-03-05T13:04:06.955Z,11.90
2019-03-05T13:06:38.654Z,11.90
2019-03-05T13:09:17.759Z,12.00
2019-03-05T13:11:49.939Z,12.10
2019-03-05T13:14:18.703Z,12.10
2019-03-05T13:16:48.146Z,12.20
2019-03-05T13:19:17.518Z,12.10
2019-03-05T13:21:51.797Z,12.10
2019-03-05T13:24:21.278Z,12.20
2019-03-05T13:26:50.754Z,12.40
2019-03-05T13:29:20.665Z,12.60
2019-03-05T13:31:51.140Z,12.80
2019-03-05T13:34:20.529Z,12.90
2019-03-05T13:36:50.661Z,12.70
2019-03-05T13:39:23.889Z,12.50
2019-03-05T13:41:55.257Z,12.40
2019-03-05T13:44:32.083Z,12.20
2019-03-05T13:47:04.659Z,12.20
2019-03-05T13:50:08.773Z,12.20
2019-03-05T13:52:57.321Z,12.40
2019-03-05T13:56:28.615Z,12.30
2019-03-05T13:59:27.810Z,12.40
2019-03-05T14:01:57.279Z,12.50
2019-03-05T14:04:31.756Z,12.40
2019-03-05T14:08:07.211Z,12.50
2019-03-05T14:10:36.605Z,12.60
2019-03-05T14:13:06.080Z,12.80
2019-03-05T14:15:36.087Z,12.70
2019-03-05T14:18:06.215Z,12.50
2019-03-05T14:20:35.669Z,12.40
2019-03-05T14:23:05.453Z,12.30
2019-03-05T14:25:34.825Z,12.10
2019-03-05T14:28:04.212Z,12.00
2019-03-05T14:30:33.666Z,12.00
2019-03-05T14:33:02.979Z,12.00
2019-03-05T14:35:33.211Z,12.10
2019-03-05T14:38:03.754Z,12.20
2019-03-05T14:40:33.129Z,12.20
2019-03-05T14:43:03.475Z,12.20
2019-03-05T14:45:34.595Z,12.20
2019-03-05T14:48:04.608Z,12.20
2019-03-05T14:50:35.292Z,12.10
2019-03-05T14:53:05.015Z,12.20
2019-03-05T14:55:34.549Z,12.10
2019-03-05T14:58:04.030Z,12.20
2019-03-05T15:00:33.468Z,12.20
2019-03-05T15:03:03.137Z,12.10
2019-03-05T15:05:32.453Z,12.10
2019-03-05T15:08:01.961Z,12.10
2019-03-05T15:10:31.413Z,12.10
2019-03-05T15:13:01.190Z,12.10
2019-03-05T15:15:31.270Z,12.10
2019-03-05T15:18:00.653Z,12.10
2019-03-05T15:20:30.153Z,11.90
2019-03-05T15:22:59.450Z,11.90
2019-03-05T15:25:30.282Z,12.00
2019-03-05T15:28:02.480Z,12.00
2019-03-05T15:30:32.196Z,11.90
2019-03-05T15:33:02.960Z,11.90
2019-03-05T15:35:32.537Z,11.80
2019-03-05T15:38:02.491Z,11.70
2019-03-05T15:40:31.956Z,11.70
2019-03-05T15:43:01.434Z,11.70
2019-03-05T15:45:31.201Z,11.70
2019-03-05T15:48:00.638Z,11.70
2019-03-05T15:50:30.476Z,11.60
2019-03-05T15:53:00.895Z,11.70
2019-03-05T15:55:30.786Z,11.80
2019-03-05T15:58:00.105Z,11.80
2019-03-05T16:00:32.394Z,11.70
2019-03-05T16:03:02.236Z,11.50
2019-03-05T16:05:31.720Z,11.40
2019-03-05T16:08:01.497Z,11.30
2019-03-05T16:10:32.367Z,11.30
2019-03-05T16:13:03.924Z,11.20
2019-03-05T16:15:33.609Z,11.10
2019-03-05T16:18:05.213Z,11.10
2019-03-05T16:20:34.870Z,11.00
2019-03-05T16:23:08.985Z,11.00
2019-03-05T16:25:46.187Z,10.90
2019-03-05T16:28:15.708Z,10.90
2019-03-05T16:31:16.467Z,10.80
2019-03-05T16:34:14.483Z,10.80
2019-03-05T16:37:12.813Z,10.80
2019-03-05T16:39:56.004Z,10.80
2019-03-05T16:43:03.153Z,10.70
2019-03-05T16:45:54.639Z,10.70
2019-03-05T16:48:34.031Z,10.70
2019-03-05T16:51:12.176Z,10.70
2019-03-05T16:53:50.353Z,10.70
2019-03-05T16:56:37.130Z,10.60
2019-03-05T16:59:43.975Z,10.60
2019-03-05T17:02:31.073Z,10.60
2019-03-05T17:05:31.674Z,10.50
2019-03-05T17:08:20.119Z,10.40
2019-03-05T17:11:14.378Z,10.40
2019-03-05T17:13:43.829Z,10.40
2019-03-05T17:16:16.643Z,10.30
2019-03-05T17:18:47.719Z,10.30
2019-03-05T17:21:27.704Z,10.30
2019-03-05T17:23:59.822Z,10.20
2019-03-05T17:26:35.749Z,10.10
2019-03-05T17:29:05.463Z,10.10
2019-03-05T17:31:35.871Z,10.00
2019-03-05T17:34:16.032Z,10.00
2019-03-05T17:36:47.899Z,10.10
2019-03-05T17:39:23.839Z,10.10
2019-03-05T17:41:53.133Z,10.20
2019-03-05T17:44:22.772Z,10.20
2019-03-05T17:46:52.046Z,10.30
2019-03-05T17:49:21.499Z,10.30
2019-03-05T17:51:51.977Z,10.30
2019-03-05T17:54:21.303Z,10.30
2019-03-05T17:56:50.937Z,10.40
2019-03-05T17:59:21.473Z,10.40
2019-03-05T18:01:50.981Z,10.30
2019-03-05T18:04:20.461Z,10.30
2019-03-05T18:06:49.753Z,10.30
2019-03-05T18:09:21.609Z,10.30
2019-03-05T18:11:51.216Z,10.30
2019-03-05T18:14:20.666Z,10.30
2019-03-05T18:16:50.219Z,10.20
2019-03-05T18:19:19.661Z,10.20
2019-03-05T18:21:49.110Z,10.20
2019-03-05T18:24:19.073Z,10.20
2019-03-05T18:26:49.701Z,10.10
2019-03-05T18:29:19.575Z,10.10
2019-03-05T18:31:49.288Z,10.00
2019-03-05T18:34:18.648Z,10.00
2019-03-05T18:36:48.549Z,10.00
2019-03-05T18:39:18.293Z,9.90
2019-03-05T18:41:47.745Z,10.00
2019-03-05T18:44:17.425Z,9.90
2019-03-05T18:46:46.999Z,9.80
2019-03-05T18:49:16.519Z,9.80
2019-03-05T18:51:46.014Z,9.70
2019-03-05T18:54:15.470Z,9.70
2019-03-05T18:56:44.756Z,9.70
2019-03-05T18:59:14.273Z,9.70
2019-03-05T19:01:43.762Z,9.80
2019-03-05T19:04:13.292Z,9.80
2019-03-05T19:06:42.815Z,9.80
2019-03-05T19:09:12.724Z,9.80
2019-03-05T19:11:42.186Z,9.80
2019-03-05T19:14:11.854Z,9.90
2019-03-05T19:16:41.255Z,9.90
2019-03-05T19:19:11.912Z,9.90
2019-03-05T19:21:41.587Z,9.80
2019-03-05T19:24:11.265Z,9.90
2019-03-05T19:26:41.778Z,9.90
2019-03-05T19:29:11.402Z,9.80
2019-03-05T19:31:40.958Z,9.80
2019-03-05T19:34:10.745Z,9.80
2019-03-05T19:36:40.059Z,9.80
2019-03-05T19:39:09.609Z,9.80
2019-03-05T19:41:38.958Z,9.70
2019-03-05T19:44:09.922Z,9.70
2019-03-05T19:46:39.453Z,9.70
2019-03-05T19:49:08.778Z,9.70
2019-03-05T19:51:38.324Z,9.60
2019-03-05T19:54:09.427Z,9.60
2019-03-05T19:56:39.234Z,9.50
2019-03-05T19:59:08.927Z,9.50
2019-03-05T20:01:41.354Z,9.50
2019-03-05T20:04:14.330Z,9.50
2019-03-05T20:06:45.273Z,9.50
2019-03-05T20:09:19.496Z,9.50
2019-03-05T20:11:48.811Z,9.40
2019-03-05T20:14:19.403Z,9.40
2019-03-05T20:16:51.749Z,9.10
2019-03-05T20:19:21.215Z,8.50
2019-03-05T20:21:50.772Z,8.00
2019-03-05T20:24:20.314Z,7.60
2019-03-05T20:26:49.802Z,7.30
2019-03-05T20:29:19.154Z,6.90
2019-03-05T20:31:48.996Z,6.80
2019-03-05T20:34:18.286Z,6.60
2019-03-05T20:36:48.527Z,6.50
2019-03-05T20:39:18.078Z,6.50
2019-03-05T20:41:47.380Z,6.40
2019-03-05T20:44:19.025Z,6.20
2019-03-05T20:46:48.435Z,6.20
2019-03-05T20:49:18.326Z,6.20
2019-03-05T20:51:52.374Z,6.20
2019-03-05T20:54:21.700Z,6.10
2019-03-05T20:56:54.178Z,6.10
2019-03-05T20:59:23.951Z,6.10
2019-03-05T21:01:53.604Z,6.00
2019-03-05T21:04:22.951Z,6.00
2019-03-05T21:06:52.575Z,6.00
2019-03-05T21:09:23.935Z,6.00
2019-03-05T21:11:55.615Z,5.90
2019-03-05T21:14:24.974Z,5.90
2019-03-05T21:16:55.982Z,5.90
2019-03-05T21:19:25.323Z,6.00
2019-03-05T21:21:54.821Z,6.00
2019-03-05T21:24:24.455Z,6.00
2019-03-05T21:26:53.910Z,5.90
2019-03-05T21:29:23.233Z,5.80
2019-03-05T21:31:53.119Z,5.70
2019-03-05T21:34:22.464Z,5.70
2019-03-05T21:36:51.998Z,5.60
2019-03-05T21:39:21.735Z,5.50
2019-03-05T21:41:51.198Z,5.40
2019-03-05T21:44:20.531Z,5.40
2019-03-05T21:46:49.924Z,5.30
2019-03-05T21:49:19.680Z,5.30
2019-03-05T21:51:49.017Z,5.30
2019-03-05T21:54:18.502Z,5.20
2019-03-05T21:56:50.211Z,5.20
2019-03-05T21:59:19.818Z,5.20
2019-03-05T22:01:51.033Z,5.10
2019-03-05T22:04:20.311Z,5.20
2019-03-05T22:06:49.682Z,5.20
2019-03-05T22:09:19.203Z,5.20
2019-03-05T22:11:50.785Z,5.20
2019-03-05T22:14:20.299Z,5.20
2019-03-05T22:16:49.615Z,5.20
2019-03-05T22:19:18.996Z,5.20
2019-03-05T22:21:48.455Z,5.20
2019-03-05T22:24:17.839Z,5.20
2019-03-05T22:26:47.259Z,5.20
2019-03-05T22:29:16.523Z,5.20
2019-03-05T22:31:46.076Z,5.20
2019-03-05T22:34:15.992Z,5.20
2019-03-05T22:36:45.363Z,5.20
2019-03-05T22:39:16.285Z,5.20
2019-03-05T22:41:45.601Z,5.20
2019-03-05T22:44:15.107Z,5.30
2019-03-05T22:46:44.688Z,5.20
2019-03-05T22:49:14.195Z,5.20
2019-03-05T22:51:43.670Z,5.30
2019-03-05T22:54:13.242Z,5.30
2019-03-05T22:56:42.563Z,5.30
2019-03-05T22:59:23.457Z,5.40
2019-03-05T23:01:55.171Z,5.40
2019-03-05T23:04:32.831Z,5.40
2019-03-05T23:07:02.303Z,5.60
2019-03-05T23:09:32.931Z,5.50
2019-03-05T23:12:07.414Z,5.50
2019-03-05T23:14:40.043Z,5.50
2019-03-05T23:17:10.860Z,5.40
2019-03-05T23:19:41.315Z,5.40
2019-03-05T23:22:12.600Z,5.40
2019-03-05T23:24:49.585Z,5.40
2019-03-05T23:27:20.983Z,5.50
2019-03-05T23:29:52.811Z,5.40
2019-03-05T23:32:26.032Z,5.40
2019-03-05T23:34:56.526Z,5.40
2019-03-05T23:37:49.762Z,5.40
2019-03-05T23:40:20.071Z,5.40
2019-03-05T23:42:51.343Z,5.30
2019-03-05T23:45:21.924Z,5.40
2019-03-05T23:47:52.531Z,5.40
2019-03-05T23:50:24.431Z,5.40
2019-03-05T23:52:55.584Z,5.30
2019-03-05T23:55:25.739Z,5.40
2019-03-05T23:57:56.998Z,5.30
